Time;durP1;ratioP1;P1;durP2;ratioP2;P2;SDS_P1;SDS_P2;PMS_P1;PMS_P2;Temp;Humidity;BMP_temperature;BMP_pressure;BME280_temperature;BME280_humidity;BME280_pressure;Samples;Min_cycle;Max_cycle;Signal;HPM_P1;HPM_P2
2023/07/07 00:01:50;;;;;;;9.60;4.38;;;15.20;99.90;;;;;;4953343;28;20062;-47
2023/07/07 00:04:16;;;;;;;6.55;4.55;;;15.10;99.90;;;;;;4952633;28;20050;-48
2023/07/07 00:06:42;;;;;;;7.55;3.40;;;15.10;99.90;;;;;;4952744;28;20505;-50
2023/07/07 00:09:08;;;;;;;7.63;4.43;;;15.10;99.90;;;;;;4953320;28;20039;-51
2023/07/07 00:11:34;;;;;;;7.13;4.20;;;15.10;99.90;;;;;;4952934;28;20117;-48
2023/07/07 00:14:00;;;;;;;7.20;3.90;;;15.10;99.90;;;;;;4952918;28;20079;-49
2023/07/07 00:16:27;;;;;;;6.32;4.20;;;15.00;99.90;;;;;;4952993;28;20130;-49
2023/07/07 00:18:57;;;;;;;6.68;4.28;;;15.00;99.90;;;;;;4953141;28;20050;-45
2023/07/07 00:21:24;;;;;;;7.53;4.43;;;15.00;99.90;;;;;;4970701;28;20057;-47
2023/07/07 00:23:54;;;;;;;7.95;4.70;;;14.90;99.90;;;;;;4972344;28;20082;-49
2023/07/07 00:26:22;;;;;;;7.63;4.53;;;14.90;99.90;;;;;;4972053;28;20042;-47
2023/07/07 00:28:48;;;;;;;6.40;4.75;;;14.90;99.90;;;;;;4971858;28;20066;-50
2023/07/07 00:31:15;;;;;;;6.95;4.78;;;14.90;99.90;;;;;;4969908;28;20128;-47
2023/07/07 00:33:41;;;;;;;7.68;5.10;;;14.80;99.90;;;;;;4951710;28;20042;-49
2023/07/07 00:36:07;;;;;;;7.53;5.18;;;14.80;99.90;;;;;;4951901;28;20051;-51
2023/07/07 00:38:33;;;;;;;5.80;4.35;;;14.80;99.90;;;;;;4952284;28;20031;-48
2023/07/07 00:41:00;;;;;;;9.07;5.20;;;14.80;99.90;;;;;;4951536;28;20472;-48
2023/07/07 00:43:26;;;;;;;6.65;4.93;;;14.70;99.90;;;;;;4952267;28;20039;-47
2023/07/07 00:45:52;;;;;;;7.50;5.70;;;14.70;99.90;;;;;;4952563;28;20039;-48
2023/07/07 00:48:26;;;;;;;9.82;5.35;;;14.70;99.90;;;;;;4952153;28;20050;-49
2023/07/07 00:50:57;;;;;;;8.25;5.50;;;14.70;99.90;;;;;;4953021;28;20530;-45
2023/07/07 00:53:23;;;;;;;9.07;5.50;;;14.60;99.90;;;;;;4952742;28;20038;-46
2023/07/07 00:55:51;;;;;;;8.60;6.43;;;14.60;99.90;;;;;;4952512;28;20458;-45
2023/07/07 00:58:22;;;;;;;8.30;6.45;;;14.50;99.90;;;;;;4952049;28;20047;-50
2023/07/07 01:00:57;;;;;;;8.80;6.18;;;14.50;99.90;;;;;;4951801;28;20382;-46
2023/07/07 01:03:48;;;;;;;9.45;5.10;;;14.50;99.90;;;;;;4955220;28;20094;-52
2023/07/07 01:06:17;;;;;;;11.07;6.90;;;14.40;99.90;;;;;;4955626;28;20097;-49
2023/07/07 01:08:47;;;;;;;11.18;6.70;;;14.40;99.90;;;;;;4956181;28;20051;-47
2023/07/07 01:11:16;;;;;;;8.57;6.30;;;14.40;99.90;;;;;;4956051;28;20079;-47
2023/07/07 01:13:42;;;;;;;8.80;5.97;;;14.40;99.90;;;;;;4955608;28;20091;-49
2023/07/07 01:16:21;;;;;;;9.93;6.70;;;14.30;99.90;;;;;;4955634;28;20040;-47
2023/07/07 01:19:27;;;;;;;8.48;6.25;;;14.30;99.90;;;;;;4955947;28;20050;-49
2023/07/07 01:21:53;;;;;;;10.07;5.07;;;14.30;99.90;;;;;;4955561;28;20044;-49
2023/07/07 01:24:45;;;;;;;9.18;6.70;;;14.20;99.90;;;;;;4938475;28;20098;-48
2023/07/07 01:27:16;;;;;;;10.80;5.40;;;14.20;99.90;;;;;;4900408;28;20046;-48
2023/07/07 01:30:03;;;;;;;11.52;7.18;;;14.10;99.90;;;;;;4956004;28;20090;-47
2023/07/07 01:32:30;;;;;;;11.88;7.60;;;14.10;99.90;;;;;;4955897;28;20043;-47
2023/07/07 01:34:59;;;;;;;9.95;6.80;;;14.10;99.90;;;;;;4938791;28;20475;-49
2023/07/07 01:37:24;;;;;;;10.48;7.72;;;14.10;99.90;;;;;;4955420;28;20047;-51
2023/07/07 01:39:53;;;;;;;11.73;7.90;;;14.10;99.90;;;;;;4938386;28;20058;-50
2023/07/07 01:42:30;;;;;;;12.82;9.02;;;14.10;99.90;;;;;;4955688;28;20027;-45
2023/07/07 01:45:07;;;;;;;11.10;8.38;;;14.10;99.90;;;;;;4955915;28;20061;-49
2023/07/07 01:47:36;;;;;;;12.07;6.43;;;14.10;99.90;;;;;;4955584;28;20039;-48
2023/07/07 01:50:09;;;;;;;11.55;8.77;;;14.10;99.90;;;;;;4955731;28;20459;-50
2023/07/07 01:52:43;;;;;;;12.40;9.00;;;14.10;99.90;;;;;;4955802;28;20077;-50
2023/07/07 01:55:15;;;;;;;11.95;8.90;;;14.10;99.90;;;;;;4955606;28;20043;-48
2023/07/07 01:57:43;;;;;;;13.63;9.40;;;14.10;99.90;;;;;;4955718;28;20126;-50
2023/07/07 02:00:10;;;;;;;12.90;10.15;;;14.00;99.90;;;;;;4955249;28;20043;-49
2023/07/07 02:02:36;;;;;;;12.60;11.05;;;14.00;99.90;;;;;;4955546;28;20043;-47
2023/07/07 02:05:01;;;;;;;15.20;10.77;;;14.00;99.90;;;;;;4955096;28;20521;-49
2023/07/07 02:07:27;;;;;;;12.27;10.35;;;14.10;99.90;;;;;;4955038;28;20514;-47
2023/07/07 02:09:53;;;;;;;12.35;10.80;;;14.00;99.90;;;;;;4955051;28;20054;-46
2023/07/07 02:12:19;;;;;;;14.90;11.65;;;14.00;99.90;;;;;;4954603;28;20071;-50
2023/07/07 02:14:44;;;;;;;15.50;10.70;;;14.00;99.90;;;;;;4954966;28;20051;-50
2023/07/07 02:17:15;;;;;;;15.30;12.23;;;14.00;99.90;;;;;;4955087;28;20475;-46
2023/07/07 02:19:42;;;;;;;13.25;11.07;;;14.00;99.90;;;;;;4921921;28;20039;-50
2023/07/07 02:22:08;;;;;;;15.93;12.10;;;14.00;99.90;;;;;;4954052;28;20050;-49
2023/07/07 02:24:33;;;;;;;15.05;12.55;;;13.90;99.90;;;;;;4953749;28;20035;-49
2023/07/07 02:26:59;;;;;;;16.92;12.68;;;13.90;99.90;;;;;;4954723;28;20503;-49
2023/07/07 02:29:25;;;;;;;14.25;11.90;;;13.90;99.90;;;;;;4936398;28;20495;-47
2023/07/07 02:31:50;;;;;;;15.98;12.85;;;13.90;99.90;;;;;;4954806;28;20047;-48
2023/07/07 02:34:16;;;;;;;16.92;13.27;;;13.90;99.90;;;;;;4954396;28;20043;-51
2023/07/07 02:36:42;;;;;;;17.17;14.13;;;13.90;99.90;;;;;;4954201;28;20082;-50
2023/07/07 02:39:07;;;;;;;16.33;10.77;;;13.90;99.90;;;;;;4954644;28;20083;-48
2023/07/07 02:41:33;;;;;;;16.70;13.23;;;13.90;99.90;;;;;;4954562;28;20058;-50
2023/07/07 02:43:59;;;;;;;18.90;13.80;;;13.90;99.90;;;;;;4954801;28;20403;-49
2023/07/07 02:46:24;;;;;;;16.95;13.48;;;13.90;99.90;;;;;;4954379;28;20123;-48
2023/07/07 02:48:50;;;;;;;17.95;13.43;;;13.90;99.90;;;;;;4937223;28;20051;-48
2023/07/07 02:51:16;;;;;;;19.88;14.68;;;13.90;99.90;;;;;;4954613;28;20066;-45
2023/07/07 02:53:41;;;;;;;17.25;13.60;;;13.90;99.90;;;;;;4954175;28;20126;-46
2023/07/07 02:56:07;;;;;;;16.60;14.80;;;13.90;99.90;;;;;;4954469;28;20546;-47
2023/07/07 02:58:33;;;;;;;19.10;11.48;;;13.90;99.90;;;;;;4954396;28;20039;-47
2023/07/07 03:01:11;;;;;;;21.25;11.73;;;13.80;99.90;;;;;;4954289;28;20459;-50
2023/07/07 03:03:42;;;;;;;21.77;12.57;;;13.80;99.90;;;;;;4954231;28;20035;-47
2023/07/07 03:06:11;;;;;;;21.90;14.73;;;13.80;99.90;;;;;;4936248;28;20062;-49
2023/07/07 03:08:37;;;;;;;20.70;12.82;;;13.80;99.90;;;;;;4953672;28;20043;-48
2023/07/07 03:11:09;;;;;;;17.58;11.45;;;13.80;99.90;;;;;;4953446;28;20062;-49
2023/07/07 03:13:36;;;;;;;18.42;15.18;;;13.80;99.90;;;;;;4953951;28;20039;-47
2023/07/07 03:16:13;;;;;;;18.50;15.05;;;13.80;99.90;;;;;;4953152;28;20043;-48
2023/07/07 03:18:40;;;;;;;20.08;15.15;;;13.80;99.90;;;;;;4953004;28;20043;-46
2023/07/07 03:21:07;;;;;;;22.85;12.23;;;13.70;99.90;;;;;;4936545;28;20163;-49
2023/07/07 03:23:33;;;;;;;19.55;14.93;;;13.70;99.90;;;;;;4953824;28;20054;-49
2023/07/07 03:26:15;;;;;;;18.42;15.27;;;13.70;99.90;;;;;;4952708;28;20039;-49
2023/07/07 03:28:41;;;;;;;21.35;12.65;;;13.70;99.90;;;;;;4935586;28;20066;-49
2023/07/07 03:31:09;;;;;;;21.13;12.40;;;13.70;99.90;;;;;;4953294;28;20550;-47
2023/07/07 03:33:35;;;;;;;18.33;15.00;;;13.70;99.90;;;;;;4953849;28;20398;-52
2023/07/07 03:36:01;;;;;;;23.27;12.73;;;13.60;99.90;;;;;;4953388;28;20039;-49
2023/07/07 03:38:27;;;;;;;18.00;15.85;;;13.60;99.90;;;;;;4952352;28;20427;-47
2023/07/07 03:40:52;;;;;;;17.85;15.98;;;13.60;99.90;;;;;;4954801;28;20031;-47
2023/07/07 03:43:18;;;;;;;19.98;16.05;;;13.60;99.90;;;;;;4953703;28;20043;-52
2023/07/07 03:45:44;;;;;;;17.90;16.00;;;13.60;99.90;;;;;;4953145;28;20047;-46
2023/07/07 03:48:10;;;;;;;19.88;15.68;;;13.60;99.90;;;;;;4953721;28;20047;-48
2023/07/07 03:50:35;;;;;;;20.75;16.25;;;13.70;99.90;;;;;;4953087;28;20388;-46
2023/07/07 03:53:01;;;;;;;19.75;11.40;;;13.70;99.90;;;;;;4953187;28;20039;-49
2023/07/07 03:55:27;;;;;;;21.10;13.48;;;13.60;99.90;;;;;;4935684;28;20035;-50
2023/07/07 03:57:52;;;;;;;19.25;12.75;;;13.60;99.90;;;;;;4953549;28;20066;-47
2023/07/07 04:00:18;;;;;;;19.52;16.08;;;13.60;99.90;;;;;;4953297;28;20479;-49
2023/07/07 04:02:44;;;;;;;19.55;12.60;;;13.60;99.90;;;;;;4953342;28;20407;-51
2023/07/07 04:05:10;;;;;;;20.10;15.38;;;13.60;99.90;;;;;;4937913;28;20113;-48
2023/07/07 04:07:36;;;;;;;21.13;13.05;;;13.60;99.90;;;;;;4971870;28;20047;-50
2023/07/07 04:10:05;;;;;;;19.02;16.63;;;13.60;99.90;;;;;;4972352;28;20043;-48
2023/07/07 04:12:31;;;;;;;20.00;13.07;;;13.60;99.90;;;;;;4972450;28;20130;-50
2023/07/07 04:15:00;;;;;;;21.98;12.60;;;13.60;99.90;;;;;;4972289;28;20049;-46
2023/07/07 04:17:26;;;;;;;21.30;13.05;;;13.60;99.90;;;;;;4972029;28;20042;-45
2023/07/07 04:19:53;;;;;;;20.38;13.38;;;13.60;99.90;;;;;;4969599;28;20113;-48
2023/07/07 04:22:18;;;;;;;20.52;17.55;;;13.60;99.90;;;;;;4952764;28;20039;-49
2023/07/07 04:24:44;;;;;;;19.48;16.35;;;13.60;99.90;;;;;;4952698;28;20032;-48
2023/07/07 04:27:10;;;;;;;25.85;13.38;;;13.70;99.90;;;;;;4953163;28;20478;-48
2023/07/07 04:29:36;;;;;;;20.52;13.52;;;13.70;99.90;;;;;;4935640;28;20399;-45
2023/07/07 04:32:03;;;;;;;19.83;16.27;;;13.80;99.90;;;;;;4952791;28;20359;-46
2023/07/07 04:34:30;;;;;;;18.50;16.50;;;13.80;99.90;;;;;;4952932;28;20039;-47
2023/07/07 04:36:56;;;;;;;19.40;15.82;;;13.80;99.90;;;;;;4934583;28;20163;-48
2023/07/07 04:39:21;;;;;;;18.88;16.02;;;13.80;99.90;;;;;;4951887;28;20130;-49
2023/07/07 04:41:50;;;;;;;27.83;17.42;;;13.90;99.90;;;;;;4952559;28;20047;-47
2023/07/07 04:44:15;;;;;;;22.38;17.75;;;13.90;99.90;;;;;;4936864;28;20078;-50
2023/07/07 04:46:41;;;;;;;18.83;16.67;;;14.00;99.90;;;;;;4971944;28;20463;-50
2023/07/07 04:49:08;;;;;;;20.85;17.48;;;14.00;99.90;;;;;;4972131;28;20046;-51
2023/07/07 04:51:39;;;;;;;24.15;13.80;;;14.00;99.90;;;;;;4971590;28;20050;-44
2023/07/07 04:54:06;;;;;;;21.50;14.50;;;14.10;99.90;;;;;;4971713;28;20089;-49
2023/07/07 04:56:35;;;;;;;19.98;17.70;;;14.10;99.90;;;;;;4957827;28;20078;-47
2023/07/07 04:59:02;;;;;;;21.33;17.60;;;14.20;99.90;;;;;;4952439;28;20031;-47
2023/07/07 05:01:29;;;;;;;24.13;13.45;;;14.20;99.90;;;;;;4952680;28;20042;-50
2023/07/07 05:03:58;;;;;;;19.65;17.55;;;14.30;99.90;;;;;;4952614;28;20039;-48
2023/07/07 05:06:25;;;;;;;22.13;15.13;;;14.30;99.90;;;;;;4957322;28;20058;-48
2023/07/07 05:08:51;;;;;;;21.20;17.83;;;14.30;99.90;;;;;;4971792;28;20078;-47
2023/07/07 05:11:19;;;;;;;21.88;14.90;;;14.40;99.90;;;;;;4971578;28;20085;-49
2023/07/07 05:13:46;;;;;;;21.48;17.98;;;14.40;99.90;;;;;;4971427;28;20031;-48
2023/07/07 05:16:14;;;;;;;22.80;14.32;;;14.50;99.90;;;;;;4971867;28;20047;-48
2023/07/07 05:18:40;;;;;;;21.33;17.27;;;14.50;99.90;;;;;;4971858;28;20031;-47
2023/07/07 05:21:07;;;;;;;20.80;18.30;;;14.50;99.90;;;;;;4967154;28;20039;-52
2023/07/07 05:23:34;;;;;;;22.08;17.80;;;14.70;99.90;;;;;;4952554;28;20031;-47
2023/07/07 05:26:00;;;;;;;20.77;18.30;;;14.70;99.90;;;;;;4952491;28;20035;-46
2023/07/07 05:28:26;;;;;;;18.80;16.77;;;14.80;99.90;;;;;;4935311;28;20399;-50
2023/07/07 05:30:52;;;;;;;21.60;13.95;;;14.90;99.90;;;;;;4952328;28;20042;-46
2023/07/07 05:33:19;;;;;;;22.77;14.35;;;14.90;99.90;;;;;;4952254;28;20499;-50
2023/07/07 05:35:48;;;;;;;21.40;16.20;;;14.90;99.90;;;;;;4952387;28;20051;-48
2023/07/07 05:38:16;;;;;;;20.58;16.42;;;15.10;99.90;;;;;;4951741;28;20035;-49
2023/07/07 05:40:43;;;;;;;18.20;16.30;;;15.10;99.90;;;;;;4952055;28;20043;-50
2023/07/07 05:43:09;;;;;;;20.23;16.63;;;15.20;99.90;;;;;;4952329;28;20047;-50
2023/07/07 05:45:35;;;;;;;23.30;17.92;;;15.30;99.90;;;;;;4952970;28;20038;-51
2023/07/07 05:48:00;;;;;;;19.67;15.95;;;15.40;99.90;;;;;;4953286;28;20047;-46
2023/07/07 05:50:26;;;;;;;18.63;16.52;;;15.40;99.90;;;;;;4955795;28;20505;-49
2023/07/07 05:52:52;;;;;;;23.77;14.80;;;15.50;99.90;;;;;;4953902;28;20039;-51
2023/07/07 05:55:29;;;;;;;19.65;15.20;;;15.50;99.90;;;;;;4955461;28;20050;-48
2023/07/07 05:57:56;;;;;;;19.08;15.82;;;15.60;99.90;;;;;;4955687;28;20039;-48
2023/07/07 06:00:22;;;;;;;23.88;13.23;;;15.70;99.90;;;;;;4955796;28;20493;-49
2023/07/07 06:02:48;;;;;;;19.42;14.88;;;15.70;99.90;;;;;;4952666;28;20372;-48
2023/07/07 06:05:15;;;;;;;19.25;14.95;;;15.80;99.90;;;;;;4953100;28;20050;-49
2023/07/07 06:07:41;;;;;;;19.98;14.55;;;15.80;99.90;;;;;;4950522;28;20565;-48
2023/07/07 06:10:10;;;;;;;18.92;14.52;;;15.90;99.90;;;;;;4953641;28;20049;-47
2023/07/07 06:12:36;;;;;;;18.75;14.55;;;16.00;99.90;;;;;;4951890;28;20042;-47
2023/07/07 06:15:03;;;;;;;18.08;14.85;;;16.10;99.90;;;;;;4955210;28;20043;-46
2023/07/07 06:17:29;;;;;;;17.35;14.10;;;16.20;99.90;;;;;;4935073;28;20039;-48
2023/07/07 06:19:55;;;;;;;20.27;13.85;;;16.30;99.90;;;;;;4937063;28;20113;-46
2023/07/07 06:22:21;;;;;;;16.23;13.02;;;16.30;99.90;;;;;;4929302;28;20451;-44
2023/07/07 06:24:47;;;;;;;16.45;12.95;;;16.40;99.90;;;;;;4946311;28;20059;-49
2023/07/07 06:27:12;;;;;;;18.23;13.57;;;16.50;99.90;;;;;;4945162;28;20120;-51
2023/07/07 06:29:38;;;;;;;17.02;11.45;;;16.60;99.90;;;;;;4946679;28;20130;-47
2023/07/07 06:32:04;;;;;;;14.55;12.30;;;16.60;99.90;;;;;;4928445;28;20031;-46
2023/07/07 06:34:30;;;;;;;14.70;11.93;;;16.70;99.90;;;;;;4945707;28;20047;-51
2023/07/07 06:36:55;;;;;;;17.85;12.50;;;16.80;99.90;;;;;;4944054;28;20055;-49
2023/07/07 06:39:21;;;;;;;18.10;10.23;;;16.90;99.90;;;;;;4952477;28;20130;-49
2023/07/07 06:41:47;;;;;;;15.85;11.82;;;16.90;99.90;;;;;;4948173;28;20475;-49
2023/07/07 06:44:12;;;;;;;14.43;10.35;;;17.00;99.90;;;;;;4930296;28;20126;-48
2023/07/07 06:46:38;;;;;;;12.55;9.93;;;17.10;99.90;;;;;;4931181;28;20507;-50
2023/07/07 06:49:04;;;;;;;18.90;9.55;;;17.20;99.90;;;;;;4953342;28;20043;-45
2023/07/07 06:51:30;;;;;;;12.60;9.02;;;17.30;99.90;;;;;;4953148;28;20043;-50
2023/07/07 06:53:57;;;;;;;11.48;9.70;;;17.30;99.90;;;;;;4954117;28;20237;-46
2023/07/07 06:56:23;;;;;;;10.85;8.43;;;17.40;99.90;;;;;;4954489;28;20051;-47
2023/07/07 06:58:49;;;;;;;14.93;9.10;;;17.50;99.90;;;;;;4954007;28;20155;-47
2023/07/07 07:01:14;;;;;;;11.80;8.40;;;17.60;99.90;;;;;;4936917;28;20043;-48
2023/07/07 07:03:42;;;;;;;11.80;8.32;;;17.60;99.90;;;;;;4954178;28;20636;-47
2023/07/07 07:06:09;;;;;;;13.55;7.43;;;17.70;99.90;;;;;;4952109;28;20444;-50
2023/07/07 07:08:35;;;;;;;9.98;7.00;;;17.80;99.90;;;;;;4952885;28;20369;-48
2023/07/07 07:11:01;;;;;;;10.50;6.97;;;17.90;99.90;;;;;;4953684;28;20031;-48
2023/07/07 07:13:27;;;;;;;11.48;6.55;;;17.90;99.90;;;;;;4935035;28;20043;-46
2023/07/07 07:15:55;;;;;;;9.43;6.40;;;18.00;99.90;;;;;;4933957;28;20047;-48
2023/07/07 07:18:20;;;;;;;10.60;6.68;;;18.10;99.90;;;;;;4955470;28;20035;-50
2023/07/07 07:20:51;;;;;;;8.70;6.50;;;18.20;99.90;;;;;;4953647;28;20043;-48
2023/07/07 07:23:17;;;;;;;10.82;6.82;;;18.30;99.90;;;;;;4935309;28;20047;-47
2023/07/07 07:25:44;;;;;;;10.82;6.00;;;18.40;99.90;;;;;;4953342;28;20193;-47
2023/07/07 07:28:11;;;;;;;11.45;6.32;;;18.50;99.90;;;;;;4952443;28;20090;-48
2023/07/07 07:30:37;;;;;;;11.27;5.57;;;18.60;99.90;;;;;;4953575;28;20402;-49
2023/07/07 07:33:10;;;;;;;8.25;5.45;;;18.70;99.90;;;;;;4953088;28;20545;-49
2023/07/07 07:35:35;;;;;;;11.80;6.25;;;18.80;99.90;;;;;;4917853;28;20118;-47
2023/07/07 07:38:01;;;;;;;7.13;5.03;;;18.90;99.90;;;;;;4952597;28;20115;-48
2023/07/07 07:40:27;;;;;;;8.20;5.22;;;19.00;99.90;;;;;;4953425;28;20075;-50
2023/07/07 07:42:53;;;;;;;8.30;4.70;;;19.00;99.90;;;;;;4952880;28;20122;-47
2023/07/07 07:45:21;;;;;;;7.68;4.85;;;19.10;99.90;;;;;;4953357;28;20106;-47
2023/07/07 07:47:47;;;;;;;9.63;4.68;;;19.20;99.90;;;;;;4952723;28;20043;-45
2023/07/07 07:50:15;;;;;;;9.05;4.00;;;19.20;99.90;;;;;;4953058;28;20555;-47
2023/07/07 07:52:41;;;;;;;6.32;3.67;;;19.30;99.90;;;;;;4953521;28;20043;-46
2023/07/07 07:55:07;;;;;;;7.70;3.80;;;19.40;99.90;;;;;;4954835;28;20467;-46
2023/07/07 07:57:33;;;;;;;7.90;3.55;;;19.40;99.90;;;;;;4953134;28;20082;-48
2023/07/07 07:59:58;;;;;;;7.78;3.72;;;19.50;99.90;;;;;;4952904;28;20187;-46
2023/07/07 08:02:24;;;;;;;7.10;3.83;;;19.60;99.90;;;;;;4952946;28;20043;-48
2023/07/07 08:04:50;;;;;;;6.85;3.65;;;19.70;99.90;;;;;;4952845;28;20384;-51
2023/07/07 08:07:16;;;;;;;6.95;3.33;;;19.80;99.90;;;;;;4951838;28;20510;-49
2023/07/07 08:09:41;;;;;;;8.60;3.92;;;19.90;99.90;;;;;;4955145;28;20089;-51
2023/07/07 08:12:09;;;;;;;6.85;3.28;;;20.00;99.90;;;;;;4952413;28;20099;-48
2023/07/07 08:14:35;;;;;;;5.65;3.08;;;20.10;99.90;;;;;;4951565;28;20094;-47
2023/07/07 08:17:04;;;;;;;8.05;2.85;;;20.20;99.90;;;;;;4952527;28;20051;-50
2023/07/07 08:19:34;;;;;;;5.85;3.28;;;20.30;99.90;;;;;;4950855;28;20046;-51
2023/07/07 08:22:01;;;;;;;5.78;2.67;;;20.40;99.90;;;;;;4950927;28;20043;-48
2023/07/07 08:24:27;;;;;;;8.05;2.63;;;20.40;99.90;;;;;;4952087;28;20119;-49
2023/07/07 08:26:53;;;;;;;6.78;2.72;;;20.50;99.90;;;;;;4934085;28;20451;-47
2023/07/07 08:29:19;;;;;;;3.90;2.08;;;20.50;99.90;;;;;;4952620;28;20051;-47
2023/07/07 08:31:44;;;;;;;6.35;2.55;;;20.60;99.90;;;;;;4952580;28;20371;-49
2023/07/07 08:34:10;;;;;;;6.78;2.17;;;20.60;99.90;;;;;;4932068;28;20126;-47
2023/07/07 08:36:36;;;;;;;6.28;2.30;;;20.70;99.90;;;;;;4952044;28;20047;-50
2023/07/07 08:39:11;;;;;;;5.57;2.42;;;20.80;99.90;;;;;;4951164;28;20039;-46
2023/07/07 08:41:37;;;;;;;5.07;2.25;;;20.90;99.90;;;;;;4934388;28;20042;-51
2023/07/07 08:44:04;;;;;;;5.88;2.20;;;21.00;99.90;;;;;;4952343;28;20043;-47
2023/07/07 08:46:46;;;;;;;4.68;2.15;;;21.00;99.90;;;;;;4934065;28;20514;-51
2023/07/07 08:49:28;;;;;;;6.07;2.30;;;21.00;99.90;;;;;;4951082;28;20047;-49
2023/07/07 08:52:01;;;;;;;6.15;2.30;;;21.10;99.90;;;;;;4950935;28;20542;-50
2023/07/07 08:54:43;;;;;;;5.70;2.10;;;21.20;99.90;;;;;;4952402;28;20498;-49
2023/07/07 08:57:12;;;;;;;6.05;2.08;;;21.30;99.90;;;;;;4954053;28;20047;-46
2023/07/07 08:59:41;;;;;;;9.77;2.33;;;21.40;99.90;;;;;;4931667;28;20043;-48
2023/07/07 09:02:12;;;;;;;5.78;2.28;;;21.50;99.90;;;;;;4951385;28;20482;-47
2023/07/07 09:04:47;;;;;;;5.50;2.30;;;21.60;99.90;;;;;;4950848;28;20042;-47
2023/07/07 09:07:31;;;;;;;4.65;1.90;;;21.70;99.90;;;;;;4951572;28;20388;-48
2023/07/07 09:10:02;;;;;;;4.55;2.05;;;21.80;99.90;;;;;;4951210;28;20074;-48
2023/07/07 09:12:36;;;;;;;5.40;2.78;;;21.90;99.90;;;;;;4952181;28;20130;-47
2023/07/07 09:15:12;;;;;;;5.05;2.33;;;22.00;99.90;;;;;;4951745;28;20047;-49
2023/07/07 09:17:45;;;;;;;5.60;2.33;;;22.20;99.90;;;;;;4951269;28;20032;-48
2023/07/07 09:20:13;;;;;;;8.52;2.63;;;22.40;99.90;;;;;;4952737;28;20082;-49
2023/07/07 09:22:45;;;;;;;6.80;2.53;;;22.60;99.90;;;;;;4936352;28;20422;-45
2023/07/07 09:25:31;;;;;;;7.13;2.38;;;22.80;99.90;;;;;;4956173;28;20134;-47
2023/07/07 09:28:04;;;;;;;5.40;2.22;;;22.90;99.90;;;;;;4956522;28;20081;-48
2023/07/07 09:30:41;;;;;;;5.75;2.30;;;23.10;99.90;;;;;;4956290;28;20098;-45
2023/07/07 09:33:12;;;;;;;6.18;2.22;;;23.30;99.90;;;;;;4956171;28;20135;-48
2023/07/07 09:35:43;;;;;;;4.43;2.03;;;23.50;99.90;;;;;;4955943;28;20035;-48
2023/07/07 09:38:23;;;;;;;5.85;2.20;;;23.60;99.60;;;;;;4955733;28;20047;-48
2023/07/07 09:41:01;;;;;;;5.07;2.30;;;23.70;99.90;;;;;;4955856;28;20458;-46
2023/07/07 09:43:49;;;;;;;5.18;2.22;;;23.80;99.90;;;;;;4955494;28;20083;-48
2023/07/07 09:46:25;;;;;;;5.53;1.80;;;23.90;99.50;;;;;;4955684;28;20145;-45
2023/07/07 09:48:54;;;;;;;5.85;2.25;;;23.90;99.60;;;;;;4956014;28;20070;-46
2023/07/07 09:51:20;;;;;;;4.90;2.20;;;24.00;99.60;;;;;;4955150;28;20043;-47
2023/07/07 09:53:46;;;;;;;5.47;2.20;;;24.10;99.70;;;;;;4955834;28;20058;-49
2023/07/07 09:56:16;;;;;;;5.70;2.10;;;24.20;99.60;;;;;;4938274;28;20427;-48
2023/07/07 09:58:50;;;;;;;4.13;1.90;;;24.30;99.30;;;;;;4955886;28;20090;-46
2023/07/07 10:01:16;;;;;;;5.47;2.00;;;24.40;98.90;;;;;;4955163;28;20399;-46
2023/07/07 10:03:48;;;;;;;5.07;2.10;;;24.40;98.60;;;;;;4955128;28;20045;-50
2023/07/07 10:06:41;;;;;;;4.15;2.25;;;24.50;98.30;;;;;;4955142;28;20039;-48
2023/07/07 10:09:14;;;;;;;5.07;2.05;;;24.60;97.90;;;;;;4955124;28;20051;-47
2023/07/07 10:11:42;;;;;;;5.03;2.10;;;24.70;97.80;;;;;;4955151;28;20043;-47
2023/07/07 10:14:12;;;;;;;5.50;2.28;;;24.70;97.30;;;;;;4966057;28;20636;-45
2023/07/07 10:17:03;;;;;;;4.15;1.95;;;24.80;97.70;;;;;;4974430;28;20051;-47
2023/07/07 10:19:34;;;;;;;4.85;1.77;;;24.90;97.00;;;;;;4974591;28;20035;-50
2023/07/07 10:22:00;;;;;;;4.43;2.10;;;24.90;97.40;;;;;;4973979;28;20115;-47
2023/07/07 10:24:27;;;;;;;4.47;2.10;;;24.90;96.70;;;;;;4974214;28;20046;-49
2023/07/07 10:26:53;;;;;;;3.67;1.75;;;25.00;96.20;;;;;;4974090;28;20498;-50
2023/07/07 10:29:37;;;;;;;5.22;2.00;;;25.00;96.30;;;;;;4963910;28;20145;-51
2023/07/07 10:32:03;;;;;;;4.70;2.08;;;24.90;96.30;;;;;;4954693;28;20056;-48
2023/07/07 10:34:43;;;;;;;4.85;2.20;;;25.10;95.90;;;;;;4954266;28;20066;-48
2023/07/07 10:37:24;;;;;;;5.25;2.08;;;25.10;95.40;;;;;;4935524;28;20105;-51
2023/07/07 10:39:58;;;;;;;5.10;2.15;;;25.20;95.70;;;;;;4953539;28;20031;-51
2023/07/07 10:42:25;;;;;;;4.15;1.98;;;25.30;95.60;;;;;;4954264;28;20110;-48
2023/07/07 10:44:59;;;;;;;5.18;2.00;;;25.30;95.80;;;;;;4954696;28;20078;-51
2023/07/07 10:47:30;;;;;;;4.10;1.88;;;25.40;95.60;;;;;;4954175;28;20051;-51
2023/07/07 10:49:58;;;;;;;3.92;1.88;;;25.40;95.20;;;;;;4954750;28;20035;-46
2023/07/07 10:52:35;;;;;;;4.55;2.00;;;25.60;95.50;;;;;;4954497;28;20052;-49
2023/07/07 10:55:08;;;;;;;5.68;2.00;;;25.60;95.60;;;;;;4954065;28;20032;-51
2023/07/07 10:58:01;;;;;;;5.68;2.10;;;25.80;95.40;;;;;;4954391;28;20058;-47
2023/07/07 11:00:30;;;;;;;5.38;1.70;;;25.90;95.60;;;;;;4954087;28;20039;-47
2023/07/07 11:03:23;;;;;;;4.22;2.13;;;26.00;95.60;;;;;;4954193;28;20039;-46
2023/07/07 11:06:04;;;;;;;5.60;2.20;;;26.00;94.50;;;;;;4954092;28;20039;-49
2023/07/07 11:09:07;;;;;;;4.07;1.65;;;26.10;94.90;;;;;;4953194;28;20063;-48
2023/07/07 11:12:09;;;;;;;3.97;2.03;;;26.30;94.40;;;;;;4954126;28;20448;-46
2023/07/07 11:14:38;;;;;;;4.65;1.80;;;26.20;93.40;;;;;;4954529;28;20043;-48
2023/07/07 11:17:14;;;;;;;4.28;2.10;;;26.30;93.70;;;;;;4953861;28;20472;-47
2023/07/07 11:19:42;;;;;;;5.78;2.20;;;26.30;93.80;;;;;;4953927;28;20047;-51
2023/07/07 11:22:38;;;;;;;3.92;2.22;;;26.30;94.20;;;;;;4954063;28;20081;-46
2023/07/07 11:25:25;;;;;;;5.05;2.10;;;26.50;94.00;;;;;;4953837;28;20035;-48
2023/07/07 11:28:17;;;;;;;5.43;1.80;;;26.60;94.00;;;;;;4953812;28;20113;-51
2023/07/07 11:30:56;;;;;;;3.63;1.98;;;26.70;93.40;;;;;;4953629;28;20039;-52
2023/07/07 11:34:15;;;;;;;4.10;2.08;;;26.80;92.80;;;;;;4953981;28;20134;-49
2023/07/07 11:37:06;;;;;;;4.78;1.83;;;26.90;92.20;;;;;;4875377;29;20055;-52
2023/07/07 11:40:05;;;;;;;4.28;1.90;;;26.80;92.50;;;;;;4894103;29;20502;-51
2023/07/07 11:42:43;;;;;;;4.85;2.15;;;26.80;91.40;;;;;;4945194;28;20093;-45
2023/07/07 11:45:09;;;;;;;9.75;2.20;;;27.00;92.30;;;;;;4952603;28;20494;-49
2023/07/07 11:47:50;;;;;;;3.47;1.65;;;27.00;91.40;;;;;;4953643;28;20071;-50
2023/07/07 11:51:04;;;;;;;3.83;1.85;;;27.10;91.90;;;;;;4936137;28;20054;-49
2023/07/07 11:53:42;;;;;;;4.15;1.90;;;27.20;91.70;;;;;;4939179;28;20055;-50
2023/07/07 11:56:23;;;;;;;3.75;1.80;;;27.30;92.10;;;;;;4953073;28;20051;-47
2023/07/07 11:59:00;;;;;;;5.38;2.28;;;27.40;91.20;;;;;;4952344;28;20122;-49
2023/07/07 12:01:40;;;;;;;5.20;2.30;;;27.50;91.60;;;;;;4951439;28;20110;-47
2023/07/07 12:04:20;;;;;;;5.13;1.92;;;27.60;91.60;;;;;;4935657;28;20546;-51
2023/07/07 12:06:52;;;;;;;3.83;1.90;;;27.80;91.00;;;;;;4952113;28;20043;-51
2023/07/07 12:09:37;;;;;;;4.90;1.83;;;27.90;91.40;;;;;;4952040;28;20471;-46
2023/07/07 12:12:19;;;;;;;4.35;2.05;;;28.00;90.30;;;;;;4951828;28;20040;-49
2023/07/07 12:14:59;;;;;;;3.35;1.67;;;28.10;91.00;;;;;;4952733;28;20078;-50
2023/07/07 12:17:39;;;;;;;4.20;1.98;;;28.20;90.30;;;;;;4952217;28;20734;-47
2023/07/07 12:20:14;;;;;;;5.60;2.20;;;28.10;86.90;;;;;;4952689;28;21031;-49
2023/07/07 12:22:40;;;;;;;4.70;1.90;;;28.00;89.90;;;;;;4951612;28;20053;-48
2023/07/07 12:25:12;;;;;;;5.80;2.33;;;28.10;89.90;;;;;;4934642;28;20554;-50
2023/07/07 12:27:46;;;;;;;4.10;1.55;;;28.20;89.70;;;;;;4934022;28;20051;-50
2023/07/07 12:30:24;;;;;;;3.80;1.90;;;28.30;90.00;;;;;;4935370;28;20487;-50
2023/07/07 12:32:50;;;;;;;6.47;1.88;;;28.30;89.00;;;;;;4951359;28;20586;-51
2023/07/07 12:35:58;;;;;;;4.15;1.75;;;28.30;89.10;;;;;;4935323;28;20044;-50
2023/07/07 12:38:29;;;;;;;5.03;2.00;;;28.60;89.60;;;;;;4873507;29;20417;-49
2023/07/07 12:40:58;;;;;;;4.75;2.05;;;28.70;89.30;;;;;;4874492;29;20065;-50
2023/07/07 12:43:37;;;;;;;3.80;1.85;;;28.80;88.40;;;;;;4916725;28;20051;-47
2023/07/07 12:46:07;;;;;;;3.03;1.48;;;28.90;88.40;;;;;;4952622;28;20055;-48
2023/07/07 12:48:33;;;;;;;3.78;1.80;;;29.00;89.60;;;;;;4952426;28;20089;-49
2023/07/07 12:51:05;;;;;;;5.75;2.30;;;29.20;90.00;;;;;;4952283;28;20495;-51
2023/07/07 12:53:37;;;;;;;5.97;2.17;;;29.40;88.20;;;;;;4951774;28;20042;-49
2023/07/07 12:56:05;;;;;;;4.93;1.75;;;29.40;86.50;;;;;;4952006;28;20051;-48